sensor_id;sensor_type;location;lat;lon;timestamp;temperature;humidity
21331;DHT22;10824;51.632;4.950;2022-08-19T00:01:52;19.70;99.90
21331;DHT22;10824;51.632;4.950;2022-08-19T00:04:25;19.70;99.90
21331;DHT22;10824;51.632;4.950;2022-08-19T00:06:53;19.80;99.90
21331;DHT22;10824;51.632;4.950;2022-08-19T00:09:22;19.70;99.90
21331;DHT22;10824;51.632;4.950;2022-08-19T00:11:51;19.80;99.90
21331;DHT22;10824;51.632;4.950;2022-08-19T00:14:18;19.70;99.90
21331;DHT22;10824;51.632;4.950;2022-08-19T00:16:48;19.70;99.90
21331;DHT22;10824;51.632;4.950;2022-08-19T00:19:16;19.80;99.90
21331;DHT22;10824;51.632;4.950;2022-08-19T00:21:43;19.80;99.90
21331;DHT22;10824;51.632;4.950;2022-08-19T00:24:13;19.80;99.90
21331;DHT22;10824;51.632;4.950;2022-08-19T00:26:44;19.80;99.90
21331;DHT22;10824;51.632;4.950;2022-08-19T00:29:15;19.80;99.90
21331;DHT22;10824;51.632;4.950;2022-08-19T00:31:44;19.70;99.90
21331;DHT22;10824;51.632;4.950;2022-08-19T00:34:13;19.70;99.90
21331;DHT22;10824;51.632;4.950;2022-08-19T00:36:41;19.70;99.90
21331;DHT22;10824;51.632;4.950;2022-08-19T00:39:10;19.60;99.90
21331;DHT22;10824;51.632;4.950;2022-08-19T00:41:37;19.60;99.90
21331;DHT22;10824;51.632;4.950;2022-08-19T00:46:35;19.60;99.90
21331;DHT22;10824;51.632;4.950;2022-08-19T00:49:09;19.50;99.90
21331;DHT22;10824;51.632;4.950;2022-08-19T00:51:36;19.50;99.90
21331;DHT22;10824;51.632;4.950;2022-08-19T00:54:04;19.50;99.90
21331;DHT22;10824;51.632;4.950;2022-08-19T00:56:31;19.40;99.90
21331;DHT22;10824;51.632;4.950;2022-08-19T00:58:58;19.40;99.90
21331;DHT22;10824;51.632;4.950;2022-08-19T01:01:26;19.40;99.90
21331;DHT22;10824;51.632;4.950;2022-08-19T01:03:53;19.30;99.90
21331;DHT22;10824;51.632;4.950;2022-08-19T01:06:27;19.30;99.90
21331;DHT22;10824;51.632;4.950;2022-08-19T01:08:54;19.40;99.90
21331;DHT22;10824;51.632;4.950;2022-08-19T01:11:21;19.30;99.90
21331;DHT22;10824;51.632;4.950;2022-08-19T01:13:50;19.30;99.90
21331;DHT22;10824;51.632;4.950;2022-08-19T01:16:20;19.20;99.90
21331;DHT22;10824;51.632;4.950;2022-08-19T01:18:48;19.30;99.90
21331;DHT22;10824;51.632;4.950;2022-08-19T01:21:40;19.20;99.90
21331;DHT22;10824;51.632;4.950;2022-08-19T01:24:09;19.10;99.90
21331;DHT22;10824;51.632;4.950;2022-08-19T01:26:41;19.10;99.90
21331;DHT22;10824;51.632;4.950;2022-08-19T01:29:12;19.20;99.90
21331;DHT22;10824;51.632;4.950;2022-08-19T01:31:40;19.10;99.90
21331;DHT22;10824;51.632;4.950;2022-08-19T01:34:07;19.10;99.90
21331;DHT22;10824;51.632;4.950;2022-08-19T01:36:38;19.10;99.90
21331;DHT22;10824;51.632;4.950;2022-08-19T01:39:09;19.10;99.90
21331;DHT22;10824;51.632;4.950;2022-08-19T01:41:37;19.10;99.90
21331;DHT22;10824;51.632;4.950;2022-08-19T01:44:05;19.00;99.90
21331;DHT22;10824;51.632;4.950;2022-08-19T01:46:44;19.00;99.90
21331;DHT22;10824;51.632;4.950;2022-08-19T01:49:11;19.00;99.90
21331;DHT22;10824;51.632;4.950;2022-08-19T01:51:38;19.00;99.90
21331;DHT22;10824;51.632;4.950;2022-08-19T01:54:10;19.00;99.90
21331;DHT22;10824;51.632;4.950;2022-08-19T01:56:38;19.10;99.90
21331;DHT22;10824;51.632;4.950;2022-08-19T01:59:14;19.00;99.90
21331;DHT22;10824;51.632;4.950;2022-08-19T02:01:42;18.90;99.90
21331;DHT22;10824;51.632;4.950;2022-08-19T02:04:09;19.00;99.90
21331;DHT22;10824;51.632;4.950;2022-08-19T02:06:37;18.90;99.90
21331;DHT22;10824;51.632;4.950;2022-08-19T02:09:05;18.90;99.90
21331;DHT22;10824;51.632;4.950;2022-08-19T02:11:35;18.90;99.90
21331;DHT22;10824;51.632;4.950;2022-08-19T02:14:06;19.00;99.90
21331;DHT22;10824;51.632;4.950;2022-08-19T02:16:35;18.90;99.90
21331;DHT22;10824;51.632;4.950;2022-08-19T02:19:05;18.90;99.90
21331;DHT22;10824;51.632;4.950;2022-08-19T02:21:32;18.80;99.90
21331;DHT22;10824;51.632;4.950;2022-08-19T02:24:00;18.80;99.90
21331;DHT22;10824;51.632;4.950;2022-08-19T02:26:27;18.90;99.90
21331;DHT22;10824;51.632;4.950;2022-08-19T02:28:55;18.80;99.90
21331;DHT22;10824;51.632;4.950;2022-08-19T02:31:24;18.80;99.90
21331;DHT22;10824;51.632;4.950;2022-08-19T02:33:52;18.70;99.90
21331;DHT22;10824;51.632;4.950;2022-08-19T02:36:24;18.80;99.90
21331;DHT22;10824;51.632;4.950;2022-08-19T02:38:52;18.70;99.90
21331;DHT22;10824;51.632;4.950;2022-08-19T02:41:24;18.80;99.90
21331;DHT22;10824;51.632;4.950;2022-08-19T02:43:54;18.80;99.90
21331;DHT22;10824;51.632;4.950;2022-08-19T02:46:42;18.80;99.90
21331;DHT22;10824;51.632;4.950;2022-08-19T02:49:10;18.70;99.90
21331;DHT22;10824;51.632;4.950;2022-08-19T02:51:40;18.70;99.90
21331;DHT22;10824;51.632;4.950;2022-08-19T02:54:09;18.80;99.90
21331;DHT22;10824;51.632;4.950;2022-08-19T02:56:38;18.70;99.90
21331;DHT22;10824;51.632;4.950;2022-08-19T02:59:06;18.70;99.90
21331;DHT22;10824;51.632;4.950;2022-08-19T03:01:38;18.70;99.90
21331;DHT22;10824;51.632;4.950;2022-08-19T03:04:08;18.70;99.90
21331;DHT22;10824;51.632;4.950;2022-08-19T03:06:40;18.70;99.90
21331;DHT22;10824;51.632;4.950;2022-08-19T03:09:07;18.70;99.90
21331;DHT22;10824;51.632;4.950;2022-08-19T03:11:35;18.70;99.90
21331;DHT22;10824;51.632;4.950;2022-08-19T03:14:03;18.60;99.90
21331;DHT22;10824;51.632;4.950;2022-08-19T03:16:42;18.70;99.90
21331;DHT22;10824;51.632;4.950;2022-08-19T03:19:09;18.60;99.90
21331;DHT22;10824;51.632;4.950;2022-08-19T03:21:36;18.50;99.90
21331;DHT22;10824;51.632;4.950;2022-08-19T03:24:07;18.60;99.90
21331;DHT22;10824;51.632;4.950;2022-08-19T03:26:38;18.60;99.90
21331;DHT22;10824;51.632;4.950;2022-08-19T03:29:06;18.40;99.90
21331;DHT22;10824;51.632;4.950;2022-08-19T03:31:34;18.50;99.90
21331;DHT22;10824;51.632;4.950;2022-08-19T03:34:21;18.50;99.90
21331;DHT22;10824;51.632;4.950;2022-08-19T03:36:50;18.40;99.90
21331;DHT22;10824;51.632;4.950;2022-08-19T03:39:17;18.30;99.90
21331;DHT22;10824;51.632;4.950;2022-08-19T03:41:48;18.30;99.90
21331;DHT22;10824;51.632;4.950;2022-08-19T03:44:36;18.30;99.90
21331;DHT22;10824;51.632;4.950;2022-08-19T03:47:04;18.30;99.90
21331;DHT22;10824;51.632;4.950;2022-08-19T03:49:32;18.20;99.90
21331;DHT22;10824;51.632;4.950;2022-08-19T03:52:05;18.10;99.90
21331;DHT22;10824;51.632;4.950;2022-08-19T03:54:35;18.10;99.90
21331;DHT22;10824;51.632;4.950;2022-08-19T03:57:04;18.10;99.90
21331;DHT22;10824;51.632;4.950;2022-08-19T03:59:34;18.10;99.90
21331;DHT22;10824;51.632;4.950;2022-08-19T04:02:06;18.10;99.90
21331;DHT22;10824;51.632;4.950;2022-08-19T04:04:37;18.00;99.90
21331;DHT22;10824;51.632;4.950;2022-08-19T04:07:04;17.90;99.90
21331;DHT22;10824;51.632;4.950;2022-08-19T04:09:34;17.90;99.90
21331;DHT22;10824;51.632;4.950;2022-08-19T04:12:04;17.80;99.90
21331;DHT22;10824;51.632;4.950;2022-08-19T04:14:32;17.90;99.90
21331;DHT22;10824;51.632;4.950;2022-08-19T04:17:01;17.80;99.90
21331;DHT22;10824;51.632;4.950;2022-08-19T04:19:34;17.80;99.90
21331;DHT22;10824;51.632;4.950;2022-08-19T04:22:02;17.80;99.90
21331;DHT22;10824;51.632;4.950;2022-08-19T04:24:30;17.80;99.90
21331;DHT22;10824;51.632;4.950;2022-08-19T04:26:58;17.70;99.90
21331;DHT22;10824;51.632;4.950;2022-08-19T04:29:25;17.70;99.90
21331;DHT22;10824;51.632;4.950;2022-08-19T04:31:55;17.70;99.90
21331;DHT22;10824;51.632;4.950;2022-08-19T04:34:25;17.70;99.90
21331;DHT22;10824;51.632;4.950;2022-08-19T04:36:53;17.70;99.90
21331;DHT22;10824;51.632;4.950;2022-08-19T04:39:29;17.60;99.90
21331;DHT22;10824;51.632;4.950;2022-08-19T04:42:17;17.60;99.90
21331;DHT22;10824;51.632;4.950;2022-08-19T04:45:05;17.70;99.90
21331;DHT22;10824;51.632;4.950;2022-08-19T04:47:42;17.60;99.90
21331;DHT22;10824;51.632;4.950;2022-08-19T04:50:24;17.70;99.90
21331;DHT22;10824;51.632;4.950;2022-08-19T04:52:51;17.60;99.90
21331;DHT22;10824;51.632;4.950;2022-08-19T04:55:21;17.50;99.90
21331;DHT22;10824;51.632;4.950;2022-08-19T04:57:48;17.50;99.90
21331;DHT22;10824;51.632;4.950;2022-08-19T05:00:15;17.40;99.90
21331;DHT22;10824;51.632;4.950;2022-08-19T05:02:42;17.50;99.90
21331;DHT22;10824;51.632;4.950;2022-08-19T05:05:09;17.50;99.90
21331;DHT22;10824;51.632;4.950;2022-08-19T05:07:37;17.50;99.90
21331;DHT22;10824;51.632;4.950;2022-08-19T05:10:05;17.50;99.90
21331;DHT22;10824;51.632;4.950;2022-08-19T05:12:33;17.50;99.90
21331;DHT22;10824;51.632;4.950;2022-08-19T05:15:02;17.50;99.90
21331;DHT22;10824;51.632;4.950;2022-08-19T05:17:29;17.50;99.90
21331;DHT22;10824;51.632;4.950;2022-08-19T05:20:05;17.60;99.90
21331;DHT22;10824;51.632;4.950;2022-08-19T05:22:51;17.50;99.90
21331;DHT22;10824;51.632;4.950;2022-08-19T05:25:20;17.60;99.90
21331;DHT22;10824;51.632;4.950;2022-08-19T05:27:48;17.60;99.90
21331;DHT22;10824;51.632;4.950;2022-08-19T05:30:16;17.60;99.90
21331;DHT22;10824;51.632;4.950;2022-08-19T05:32:43;17.70;99.90
21331;DHT22;10824;51.632;4.950;2022-08-19T05:35:10;17.70;99.90
21331;DHT22;10824;51.632;4.950;2022-08-19T05:37:38;17.80;99.90
21331;DHT22;10824;51.632;4.950;2022-08-19T05:40:08;17.80;99.90
21331;DHT22;10824;51.632;4.950;2022-08-19T05:42:36;17.90;99.90
21331;DHT22;10824;51.632;4.950;2022-08-19T05:45:04;17.90;99.90
21331;DHT22;10824;51.632;4.950;2022-08-19T05:47:31;17.90;99.90
21331;DHT22;10824;51.632;4.950;2022-08-19T05:49:59;18.00;99.90
21331;DHT22;10824;51.632;4.950;2022-08-19T05:52:31;18.10;99.90
21331;DHT22;10824;51.632;4.950;2022-08-19T05:54:59;18.00;99.90
21331;DHT22;10824;51.632;4.950;2022-08-19T05:57:26;18.10;99.90
21331;DHT22;10824;51.632;4.950;2022-08-19T05:59:55;18.20;99.90
21331;DHT22;10824;51.632;4.950;2022-08-19T06:02:28;18.20;99.90
21331;DHT22;10824;51.632;4.950;2022-08-19T06:04:58;18.10;99.90
21331;DHT22;10824;51.632;4.950;2022-08-19T06:07:25;18.20;99.90
21331;DHT22;10824;51.632;4.950;2022-08-19T06:09:53;18.20;99.90
21331;DHT22;10824;51.632;4.950;2022-08-19T06:12:30;18.30;99.90
21331;DHT22;10824;51.632;4.950;2022-08-19T06:15:09;18.30;99.90
21331;DHT22;10824;51.632;4.950;2022-08-19T06:17:37;18.30;99.90
21331;DHT22;10824;51.632;4.950;2022-08-19T06:20:09;18.40;99.90
21331;DHT22;10824;51.632;4.950;2022-08-19T06:22:43;18.30;99.90
21331;DHT22;10824;51.632;4.950;2022-08-19T06:25:12;18.50;99.90
21331;DHT22;10824;51.632;4.950;2022-08-19T06:27:41;18.50;99.90
21331;DHT22;10824;51.632;4.950;2022-08-19T06:30:28;18.50;99.90
21331;DHT22;10824;51.632;4.950;2022-08-19T06:32:57;18.50;99.90
21331;DHT22;10824;51.632;4.950;2022-08-19T06:35:24;18.60;99.90
21331;DHT22;10824;51.632;4.950;2022-08-19T06:37:52;18.60;99.90
21331;DHT22;10824;51.632;4.950;2022-08-19T06:40:19;18.60;99.90
21331;DHT22;10824;51.632;4.950;2022-08-19T06:42:46;18.60;99.90
21331;DHT22;10824;51.632;4.950;2022-08-19T06:45:22;18.60;99.90
21331;DHT22;10824;51.632;4.950;2022-08-19T06:47:59;18.60;99.90
21331;DHT22;10824;51.632;4.950;2022-08-19T06:50:27;18.60;99.90
21331;DHT22;10824;51.632;4.950;2022-08-19T06:52:54;18.70;99.90
21331;DHT22;10824;51.632;4.950;2022-08-19T06:55:21;18.70;99.90
21331;DHT22;10824;51.632;4.950;2022-08-19T06:57:49;18.70;99.90
21331;DHT22;10824;51.632;4.950;2022-08-19T07:00:20;18.70;99.90
21331;DHT22;10824;51.632;4.950;2022-08-19T07:02:47;18.60;99.90
21331;DHT22;10824;51.632;4.950;2022-08-19T07:05:25;18.70;99.90
21331;DHT22;10824;51.632;4.950;2022-08-19T07:07:52;18.80;99.90
21331;DHT22;10824;51.632;4.950;2022-08-19T07:10:23;18.70;99.90
21331;DHT22;10824;51.632;4.950;2022-08-19T07:12:51;18.70;99.90
21331;DHT22;10824;51.632;4.950;2022-08-19T07:15:18;18.70;99.90
21331;DHT22;10824;51.632;4.950;2022-08-19T07:17:48;18.80;99.90
21331;DHT22;10824;51.632;4.950;2022-08-19T07:20:21;18.80;99.90
21331;DHT22;10824;51.632;4.950;2022-08-19T07:22:54;18.80;99.90
21331;DHT22;10824;51.632;4.950;2022-08-19T07:25:23;18.80;99.90
21331;DHT22;10824;51.632;4.950;2022-08-19T07:27:58;18.90;99.90
21331;DHT22;10824;51.632;4.950;2022-08-19T07:30:28;18.90;99.90
21331;DHT22;10824;51.632;4.950;2022-08-19T07:32:57;18.90;99.90
21331;DHT22;10824;51.632;4.950;2022-08-19T07:35:24;19.00;99.90
21331;DHT22;10824;51.632;4.950;2022-08-19T07:37:51;19.00;99.90
21331;DHT22;10824;51.632;4.950;2022-08-19T07:40:19;19.00;99.90
21331;DHT22;10824;51.632;4.950;2022-08-19T07:42:46;19.10;99.90
21331;DHT22;10824;51.632;4.950;2022-08-19T07:45:13;19.00;99.90
21331;DHT22;10824;51.632;4.950;2022-08-19T07:47:42;19.10;99.90
21331;DHT22;10824;51.632;4.950;2022-08-19T07:50:18;19.10;99.90
21331;DHT22;10824;51.632;4.950;2022-08-19T07:52:46;19.10;99.90
21331;DHT22;10824;51.632;4.950;2022-08-19T07:55:17;19.20;99.90
21331;DHT22;10824;51.632;4.950;2022-08-19T07:58:05;19.20;99.90
21331;DHT22;10824;51.632;4.950;2022-08-19T08:00:33;19.20;99.90
21331;DHT22;10824;51.632;4.950;2022-08-19T08:03:00;19.20;99.90
21331;DHT22;10824;51.632;4.950;2022-08-19T08:05:27;19.30;99.90
21331;DHT22;10824;51.632;4.950;2022-08-19T08:08:14;19.30;99.90
21331;DHT22;10824;51.632;4.950;2022-08-19T08:11:00;19.30;99.90
21331;DHT22;10824;51.632;4.950;2022-08-19T08:13:27;19.40;99.90
21331;DHT22;10824;51.632;4.950;2022-08-19T08:15:56;19.40;99.90
21331;DHT22;10824;51.632;4.950;2022-08-19T08:18:24;19.50;99.90
21331;DHT22;10824;51.632;4.950;2022-08-19T08:20:57;19.50;99.90
21331;DHT22;10824;51.632;4.950;2022-08-19T08:23:25;19.70;99.90
21331;DHT22;10824;51.632;4.950;2022-08-19T08:25:55;19.80;99.90
21331;DHT22;10824;51.632;4.950;2022-08-19T08:28:24;19.80;99.90
21331;DHT22;10824;51.632;4.950;2022-08-19T08:30:56;19.70;99.90
21331;DHT22;10824;51.632;4.950;2022-08-19T08:33:26;19.80;99.90
21331;DHT22;10824;51.632;4.950;2022-08-19T08:36:07;19.90;99.90
21331;DHT22;10824;51.632;4.950;2022-08-19T08:38:34;19.70;99.90
21331;DHT22;10824;51.632;4.950;2022-08-19T08:45:03;19.80;99.90
21331;DHT22;10824;51.632;4.950;2022-08-19T08:47:09;19.90;99.90
21331;DHT22;10824;51.632;4.950;2022-08-19T08:49:46;19.90;99.90
21331;DHT22;10824;51.632;4.950;2022-08-19T08:52:26;20.10;99.90
21331;DHT22;10824;51.632;4.950;2022-08-19T08:55:00;20.20;99.90
21331;DHT22;10824;51.632;4.950;2022-08-19T09:00:19;20.40;99.90
21331;DHT22;10824;51.632;4.950;2022-08-19T09:02:48;20.50;99.90
21331;DHT22;10824;51.632;4.950;2022-08-19T09:05:18;20.50;99.90
21331;DHT22;10824;51.632;4.950;2022-08-19T09:08:08;20.60;99.90
21331;DHT22;10824;51.632;4.950;2022-08-19T09:10:44;20.60;99.90
21331;DHT22;10824;51.632;4.950;2022-08-19T09:13:31;20.70;99.90
21331;DHT22;10824;51.632;4.950;2022-08-19T09:16:25;20.80;99.90
21331;DHT22;10824;51.632;4.950;2022-08-19T09:19:01;20.80;99.90
21331;DHT22;10824;51.632;4.950;2022-08-19T09:21:32;20.90;99.90
21331;DHT22;10824;51.632;4.950;2022-08-19T09:24:02;21.00;99.90
21331;DHT22;10824;51.632;4.950;2022-08-19T09:26:32;20.90;99.90
21331;DHT22;10824;51.632;4.950;2022-08-19T09:29:18;20.90;99.90
21331;DHT22;10824;51.632;4.950;2022-08-19T09:31:48;21.00;99.90
21331;DHT22;10824;51.632;4.950;2022-08-19T09:34:16;21.10;99.90
21331;DHT22;10824;51.632;4.950;2022-08-19T09:36:49;21.00;99.90
21331;DHT22;10824;51.632;4.950;2022-08-19T09:39:22;21.00;99.90
21331;DHT22;10824;51.632;4.950;2022-08-19T09:41:49;21.10;99.90
21331;DHT22;10824;51.632;4.950;2022-08-19T09:44:19;21.10;99.90
21331;DHT22;10824;51.632;4.950;2022-08-19T09:46:47;21.10;99.90
21331;DHT22;10824;51.632;4.950;2022-08-19T09:49:16;21.20;99.90
21331;DHT22;10824;51.632;4.950;2022-08-19T09:51:45;21.40;99.90
21331;DHT22;10824;51.632;4.950;2022-08-19T09:54:17;21.50;99.90
21331;DHT22;10824;51.632;4.950;2022-08-19T09:56:52;21.50;99.90
21331;DHT22;10824;51.632;4.950;2022-08-19T09:59:19;21.50;99.90
21331;DHT22;10824;51.632;4.950;2022-08-19T10:01:46;21.70;99.90
21331;DHT22;10824;51.632;4.950;2022-08-19T10:04:13;21.80;99.40
21331;DHT22;10824;51.632;4.950;2022-08-19T10:06:49;21.90;98.80
21331;DHT22;10824;51.632;4.950;2022-08-19T10:09:19;22.00;98.30
21331;DHT22;10824;51.632;4.950;2022-08-19T10:12:01;22.30;97.80
21331;DHT22;10824;51.632;4.950;2022-08-19T10:14:29;22.40;96.30
21331;DHT22;10824;51.632;4.950;2022-08-19T10:16:57;22.60;94.70
21331;DHT22;10824;51.632;4.950;2022-08-19T10:19:25;22.90;93.60
21331;DHT22;10824;51.632;4.950;2022-08-19T10:21:53;22.90;92.50
21331;DHT22;10824;51.632;4.950;2022-08-19T10:24:26;23.20;93.50
21331;DHT22;10824;51.632;4.950;2022-08-19T10:26:55;23.60;89.70
21331;DHT22;10824;51.632;4.950;2022-08-19T10:29:26;23.60;88.70
21331;DHT22;10824;51.632;4.950;2022-08-19T10:32:05;23.60;89.40
21331;DHT22;10824;51.632;4.950;2022-08-19T10:34:37;23.40;87.90
21331;DHT22;10824;51.632;4.950;2022-08-19T10:37:16;23.00;89.40
21331;DHT22;10824;51.632;4.950;2022-08-19T10:39:50;23.10;88.70
21331;DHT22;10824;51.632;4.950;2022-08-19T10:42:18;23.20;87.10
21331;DHT22;10824;51.632;4.950;2022-08-19T10:44:45;23.40;89.30
21331;DHT22;10824;51.632;4.950;2022-08-19T10:47:13;23.70;85.10
21331;DHT22;10824;51.632;4.950;2022-08-19T10:49:53;24.00;85.20
21331;DHT22;10824;51.632;4.950;2022-08-19T10:52:41;23.80;85.20
21331;DHT22;10824;51.632;4.950;2022-08-19T10:55:18;23.70;85.20
21331;DHT22;10824;51.632;4.950;2022-08-19T10:58:10;23.70;85.70
21331;DHT22;10824;51.632;4.950;2022-08-19T11:00:38;23.50;86.50
21331;DHT22;10824;51.632;4.950;2022-08-19T11:03:05;23.50;86.00
21331;DHT22;10824;51.632;4.950;2022-08-19T11:05:35;23.40;86.70
21331;DHT22;10824;51.632;4.950;2022-08-19T11:08:06;23.50;86.80
21331;DHT22;10824;51.632;4.950;2022-08-19T11:10:54;23.70;86.10
21331;DHT22;10824;51.632;4.950;2022-08-19T11:13:28;23.70;86.10
21331;DHT22;10824;51.632;4.950;2022-08-19T11:16:01;23.50;85.50
21331;DHT22;10824;51.632;4.950;2022-08-19T11:18:35;23.50;86.30
21331;DHT22;10824;51.632;4.950;2022-08-19T11:23:37;23.30;86.20
21331;DHT22;10824;51.632;4.950;2022-08-19T11:26:05;23.30;87.20
21331;DHT22;10824;51.632;4.950;2022-08-19T11:28:32;23.40;87.50
21331;DHT22;10824;51.632;4.950;2022-08-19T11:30:59;23.50;86.50
21331;DHT22;10824;51.632;4.950;2022-08-19T11:33:26;23.40;86.90
21331;DHT22;10824;51.632;4.950;2022-08-19T11:35:53;23.30;89.80
21331;DHT22;10824;51.632;4.950;2022-08-19T11:38:21;23.10;91.20
21331;DHT22;10824;51.632;4.950;2022-08-19T11:40:58;23.00;92.10
21331;DHT22;10824;51.632;4.950;2022-08-19T11:43:32;22.70;96.80
21331;DHT22;10824;51.632;4.950;2022-08-19T11:46:08;22.60;98.00
21331;DHT22;10824;51.632;4.950;2022-08-19T11:48:37;22.50;99.80
21331;DHT22;10824;51.632;4.950;2022-08-19T11:51:10;22.50;99.90
21331;DHT22;10824;51.632;4.950;2022-08-19T11:53:41;22.30;99.90
21331;DHT22;10824;51.632;4.950;2022-08-19T11:56:11;22.20;99.90
21331;DHT22;10824;51.632;4.950;2022-08-19T11:58:39;22.10;99.90
21331;DHT22;10824;51.632;4.950;2022-08-19T12:01:13;22.10;99.90
21331;DHT22;10824;51.632;4.950;2022-08-19T12:03:44;22.00;99.90
21331;DHT22;10824;51.632;4.950;2022-08-19T12:06:16;21.80;99.90
21331;DHT22;10824;51.632;4.950;2022-08-19T12:08:44;21.70;99.90
21331;DHT22;10824;51.632;4.950;2022-08-19T12:11:13;21.70;99.90
21331;DHT22;10824;51.632;4.950;2022-08-19T12:13:40;21.70;99.90
21331;DHT22;10824;51.632;4.950;2022-08-19T12:16:14;21.60;99.90
21331;DHT22;10824;51.632;4.950;2022-08-19T12:18:43;21.50;99.90
21331;DHT22;10824;51.632;4.950;2022-08-19T12:21:14;21.60;99.90
21331;DHT22;10824;51.632;4.950;2022-08-19T12:23:44;21.70;99.90
21331;DHT22;10824;51.632;4.950;2022-08-19T12:26:21;22.00;99.90
21331;DHT22;10824;51.632;4.950;2022-08-19T12:28:48;22.30;99.90
21331;DHT22;10824;51.632;4.950;2022-08-19T12:31:16;22.20;99.90
21331;DHT22;10824;51.632;4.950;2022-08-19T12:33:45;22.30;99.90
21331;DHT22;10824;51.632;4.950;2022-08-19T12:36:14;22.30;99.90
21331;DHT22;10824;51.632;4.950;2022-08-19T12:38:42;22.40;99.90
21331;DHT22;10824;51.632;4.950;2022-08-19T12:41:13;22.30;99.90
21331;DHT22;10824;51.632;4.950;2022-08-19T12:43:41;22.30;99.90
21331;DHT22;10824;51.632;4.950;2022-08-19T12:46:12;22.30;99.90
21331;DHT22;10824;51.632;4.950;2022-08-19T12:48:39;22.50;99.90
21331;DHT22;10824;51.632;4.950;2022-08-19T12:51:16;22.60;99.90
21331;DHT22;10824;51.632;4.950;2022-08-19T12:53:43;22.60;99.90
21331;DHT22;10824;51.632;4.950;2022-08-19T12:56:11;22.70;99.90
21331;DHT22;10824;51.632;4.950;2022-08-19T12:58:41;22.80;99.90
21331;DHT22;10824;51.632;4.950;2022-08-19T13:01:18;22.80;99.90
21331;DHT22;10824;51.632;4.950;2022-08-19T13:03:49;23.00;99.90
21331;DHT22;10824;51.632;4.950;2022-08-19T13:06:19;23.00;99.90
21331;DHT22;10824;51.632;4.950;2022-08-19T13:08:46;23.00;99.90
21331;DHT22;10824;51.632;4.950;2022-08-19T13:11:15;23.30;99.90
21331;DHT22;10824;51.632;4.950;2022-08-19T13:13:47;23.30;99.90
21331;DHT22;10824;51.632;4.950;2022-08-19T13:16:17;23.30;99.90
21331;DHT22;10824;51.632;4.950;2022-08-19T13:18:46;23.20;99.90
21331;DHT22;10824;51.632;4.950;2022-08-19T13:21:14;23.30;99.90
21331;DHT22;10824;51.632;4.950;2022-08-19T13:23:44;23.20;99.00
21331;DHT22;10824;51.632;4.950;2022-08-19T13:26:13;23.30;99.90
21331;DHT22;10824;51.632;4.950;2022-08-19T13:28:40;23.00;99.50
21331;DHT22;10824;51.632;4.950;2022-08-19T13:31:28;22.80;99.90
21331;DHT22;10824;51.632;4.950;2022-08-19T13:34:15;22.80;99.90
21331;DHT22;10824;51.632;4.950;2022-08-19T13:36:43;22.80;99.90
21331;DHT22;10824;51.632;4.950;2022-08-19T13:39:10;22.90;99.90
21331;DHT22;10824;51.632;4.950;2022-08-19T13:41:43;23.00;99.90
21331;DHT22;10824;51.632;4.950;2022-08-19T13:44:15;23.30;99.90
21331;DHT22;10824;51.632;4.950;2022-08-19T13:46:46;23.40;99.90
21331;DHT22;10824;51.632;4.950;2022-08-19T13:49:14;23.60;99.90
21331;DHT22;10824;51.632;4.950;2022-08-19T13:51:42;23.80;99.90
21331;DHT22;10824;51.632;4.950;2022-08-19T13:54:11;23.90;99.90
21331;DHT22;10824;51.632;4.950;2022-08-19T13:56:42;23.80;99.90
21331;DHT22;10824;51.632;4.950;2022-08-19T13:59:12;23.80;99.90
21331;DHT22;10824;51.632;4.950;2022-08-19T14:01:39;23.90;99.90
21331;DHT22;10824;51.632;4.950;2022-08-19T14:04:07;23.80;99.90
21331;DHT22;10824;51.632;4.950;2022-08-19T14:06:34;23.80;99.70
21331;DHT22;10824;51.632;4.950;2022-08-19T14:09:02;23.90;99.90
21331;DHT22;10824;51.632;4.950;2022-08-19T14:11:29;23.90;99.90
21331;DHT22;10824;51.632;4.950;2022-08-19T14:13:56;23.80;99.90
21331;DHT22;10824;51.632;4.950;2022-08-19T14:16:24;23.80;99.90
21331;DHT22;10824;51.632;4.950;2022-08-19T14:18:52;23.80;99.90
21331;DHT22;10824;51.632;4.950;2022-08-19T14:21:22;23.70;99.90
21331;DHT22;10824;51.632;4.950;2022-08-19T14:23:50;23.60;99.90
21331;DHT22;10824;51.632;4.950;2022-08-19T14:26:19;23.50;99.90
21331;DHT22;10824;51.632;4.950;2022-08-19T14:28:47;23.30;99.90
21331;DHT22;10824;51.632;4.950;2022-08-19T14:31:17;23.20;99.90
21331;DHT22;10824;51.632;4.950;2022-08-19T14:33:56;23.10;99.90
21331;DHT22;10824;51.632;4.950;2022-08-19T14:36:22;23.00;99.90
21331;DHT22;10824;51.632;4.950;2022-08-19T14:38:52;22.80;99.90
21331;DHT22;10824;51.632;4.950;2022-08-19T14:41:21;22.40;99.90
21331;DHT22;10824;51.632;4.950;2022-08-19T14:43:51;22.10;99.90
21331;DHT22;10824;51.632;4.950;2022-08-19T14:46:24;22.10;99.90
21331;DHT22;10824;51.632;4.950;2022-08-19T14:48:57;21.90;99.90
21331;DHT22;10824;51.632;4.950;2022-08-19T14:51:26;21.80;99.90
21331;DHT22;10824;51.632;4.950;2022-08-19T14:53:53;21.80;99.90
21331;DHT22;10824;51.632;4.950;2022-08-19T14:56:24;21.80;99.90
21331;DHT22;10824;51.632;4.950;2022-08-19T14:58:55;22.00;99.90
21331;DHT22;10824;51.632;4.950;2022-08-19T15:01:26;22.00;99.90
21331;DHT22;10824;51.632;4.950;2022-08-19T15:03:53;22.20;99.90
21331;DHT22;10824;51.632;4.950;2022-08-19T15:06:25;22.20;99.90
21331;DHT22;10824;51.632;4.950;2022-08-19T15:08:53;22.40;99.90
21331;DHT22;10824;51.632;4.950;2022-08-19T15:11:24;22.60;99.90
21331;DHT22;10824;51.632;4.950;2022-08-19T15:13:57;22.40;99.90
21331;DHT22;10824;51.632;4.950;2022-08-19T15:16:25;22.40;99.90
21331;DHT22;10824;51.632;4.950;2022-08-19T15:18:56;22.60;99.90
21331;DHT22;10824;51.632;4.950;2022-08-19T15:21:24;22.60;99.90
21331;DHT22;10824;51.632;4.950;2022-08-19T15:23:55;22.50;99.90
21331;DHT22;10824;51.632;4.950;2022-08-19T15:26:22;22.40;99.90
21331;DHT22;10824;51.632;4.950;2022-08-19T15:28:51;22.40;99.90
21331;DHT22;10824;51.632;4.950;2022-08-19T15:31:20;22.40;99.90
21331;DHT22;10824;51.632;4.950;2022-08-19T15:33:56;22.50;99.90
21331;DHT22;10824;51.632;4.950;2022-08-19T15:36:25;22.50;99.90
21331;DHT22;10824;51.632;4.950;2022-08-19T15:38:55;22.50;99.90
21331;DHT22;10824;51.632;4.950;2022-08-19T15:41:25;22.50;99.90
21331;DHT22;10824;51.632;4.950;2022-08-19T15:43:56;22.50;99.90
21331;DHT22;10824;51.632;4.950;2022-08-19T15:46:28;22.50;99.90
21331;DHT22;10824;51.632;4.950;2022-08-19T15:48:57;22.50;99.90
21331;DHT22;10824;51.632;4.950;2022-08-19T15:51:27;22.50;99.90
21331;DHT22;10824;51.632;4.950;2022-08-19T15:53:57;22.40;99.90
21331;DHT22;10824;51.632;4.950;2022-08-19T15:56:24;22.40;99.90
21331;DHT22;10824;51.632;4.950;2022-08-19T15:58:53;22.40;99.90
21331;DHT22;10824;51.632;4.950;2022-08-19T16:01:39;22.50;99.90
21331;DHT22;10824;51.632;4.950;2022-08-19T16:04:25;22.40;99.90